createdAt,value
2019-05-05T00:00:17.483Z,8.90
2019-05-05T00:01:17.471Z,8.80
2019-05-05T00:02:17.461Z,8.00
2019-05-05T00:03:17.492Z,7.70
2019-05-05T00:04:17.466Z,8.40
2019-05-05T00:05:17.428Z,8.40
2019-05-05T00:06:17.419Z,8.10
2019-05-05T00:07:17.453Z,8.20
2019-05-05T00:08:17.397Z,8.20
2019-05-05T00:09:17.385Z,8.80
2019-05-05T00:10:17.374Z,7.80
2019-05-05T00:11:17.366Z,8.10
2019-05-05T00:12:17.354Z,8.00
2019-05-05T00:13:17.383Z,8.40
2019-05-05T00:14:17.329Z,7.50
2019-05-05T00:15:17.355Z,8.40
2019-05-05T00:16:17.354Z,7.40
2019-05-05T00:17:17.294Z,8.10
2019-05-05T00:18:17.285Z,7.30
2019-05-05T00:19:29.778Z,7.40
2019-05-05T00:20:18.261Z,7.40
2019-05-05T00:21:17.250Z,7.20
2019-05-05T00:22:17.289Z,7.20
2019-05-05T00:23:17.228Z,9.00
2019-05-05T00:24:17.219Z,7.00
2019-05-05T00:25:17.207Z,7.20
2019-05-05T00:26:17.238Z,7.20
2019-05-05T00:27:17.182Z,9.10
2019-05-05T00:28:17.175Z,7.00
2019-05-05T00:29:17.164Z,7.00
2019-05-05T00:30:17.190Z,6.90
2019-05-05T00:31:17.179Z,8.90
2019-05-05T00:32:17.166Z,7.70
2019-05-05T00:33:17.120Z,7.00
2019-05-05T00:34:17.105Z,6.20
2019-05-05T00:35:17.098Z,6.30
2019-05-05T00:36:17.085Z,7.60
2019-05-05T00:37:17.114Z,6.80
2019-05-05T00:38:17.100Z,6.20
2019-05-05T00:39:17.058Z,7.70
2019-05-05T00:40:17.041Z,7.00
2019-05-05T00:41:17.029Z,7.10
2019-05-05T00:42:17.019Z,8.60
2019-05-05T00:43:17.059Z,6.30
2019-05-05T00:44:16.996Z,5.60
2019-05-05T00:45:16.997Z,6.10
2019-05-05T00:46:16.973Z,7.10
2019-05-05T00:47:16.969Z,5.50
2019-05-05T00:48:16.992Z,6.40
2019-05-05T00:49:16.939Z,7.20
2019-05-05T00:50:16.931Z,8.10
2019-05-05T00:51:16.962Z,6.50
2019-05-05T00:52:16.910Z,7.40
2019-05-05T00:53:16.896Z,7.50
2019-05-05T00:54:16.885Z,5.30
2019-05-05T00:55:16.876Z,8.80
2019-05-05T00:56:16.861Z,6.40
2019-05-05T00:57:16.890Z,6.80
2019-05-05T00:58:16.841Z,7.10
2019-05-05T00:59:16.827Z,7.00
2019-05-05T01:00:16.821Z,7.20
2019-05-05T01:01:16.804Z,5.90
2019-05-05T01:02:16.841Z,6.30
2019-05-05T01:03:16.785Z,5.80
2019-05-05T01:04:16.773Z,6.30
2019-05-05T01:05:16.760Z,6.70
2019-05-05T01:06:16.752Z,7.60
2019-05-05T01:07:16.781Z,5.90
2019-05-05T01:08:16.770Z,6.70
2019-05-05T01:09:16.717Z,8.30
2019-05-05T01:10:16.707Z,7.60
2019-05-05T01:11:16.698Z,6.80
2019-05-05T01:12:16.687Z,5.50
2019-05-05T01:13:16.672Z,8.30
2019-05-05T01:14:16.707Z,9.00
2019-05-05T01:15:16.656Z,7.10
2019-05-05T01:16:16.687Z,5.70
2019-05-05T01:17:16.629Z,5.70
2019-05-05T01:18:16.622Z,6.30
2019-05-05T01:19:16.613Z,6.40
2019-05-05T01:20:16.637Z,7.20
2019-05-05T01:21:16.584Z,9.20
2019-05-05T01:22:16.577Z,8.60
2019-05-05T01:23:16.604Z,7.60
2019-05-05T01:24:16.554Z,9.00
2019-05-05T01:25:16.540Z,6.00
2019-05-05T01:26:16.530Z,6.80
2019-05-05T01:27:16.519Z,7.50
2019-05-05T01:28:16.512Z,5.20
2019-05-05T01:29:16.541Z,8.70
2019-05-05T01:30:16.488Z,9.30
2019-05-05T01:31:16.477Z,6.20
2019-05-05T01:32:16.500Z,7.20
2019-05-05T01:33:16.451Z,7.30
2019-05-05T01:34:16.441Z,6.30
2019-05-05T01:35:16.428Z,7.80
2019-05-05T01:36:16.419Z,7.60
2019-05-05T01:37:16.447Z,8.40
2019-05-05T01:38:16.404Z,6.10
2019-05-05T01:39:16.386Z,7.60
2019-05-05T01:40:16.373Z,8.40
2019-05-05T01:41:16.410Z,7.60
2019-05-05T01:42:16.355Z,8.60
2019-05-05T01:43:16.381Z,9.20
2019-05-05T01:44:16.373Z,9.50
2019-05-05T01:45:16.322Z,8.60
2019-05-05T01:46:16.314Z,8.60
2019-05-05T01:47:16.295Z,7.90
2019-05-05T01:48:16.287Z,6.90
2019-05-05T01:49:16.276Z,6.50
2019-05-05T01:50:20.876Z,8.70
2019-05-05T01:51:17.256Z,6.40
2019-05-05T01:52:16.240Z,6.60
2019-05-05T01:53:16.230Z,5.80
2019-05-05T01:54:16.218Z,7.90
2019-05-05T01:55:16.233Z,9.40
2019-05-05T01:56:16.234Z,7.80
2019-05-05T01:57:16.232Z,8.20
2019-05-05T01:58:16.180Z,7.50
2019-05-05T01:59:16.163Z,7.10
2019-05-05T02:00:16.193Z,7.00
2019-05-05T02:01:16.186Z,7.00
2019-05-05T02:02:16.177Z,6.20
2019-05-05T02:03:16.123Z,7.30
2019-05-05T02:04:16.107Z,5.30
2019-05-05T02:05:16.096Z,7.40
2019-05-05T02:06:16.086Z,7.80
2019-05-05T02:07:16.078Z,6.40
2019-05-05T02:08:16.104Z,8.50
2019-05-05T02:09:16.089Z,6.80
2019-05-05T02:10:16.051Z,7.70
2019-05-05T02:11:16.031Z,7.60
2019-05-05T02:12:16.111Z,8.00
2019-05-05T02:13:16.188Z,10.60
2019-05-05T02:14:15.999Z,10.70
2019-05-05T02:15:15.985Z,6.50
2019-05-05T02:16:15.974Z,7.90
2019-05-05T02:17:15.965Z,10.40
2019-05-05T02:18:15.994Z,8.30
2019-05-05T02:19:15.993Z,8.30
2019-05-05T02:20:28.656Z,8.20
2019-05-05T02:21:16.918Z,7.80
2019-05-05T02:22:15.910Z,8.30
2019-05-05T02:23:15.939Z,9.80
2019-05-05T02:24:15.892Z,7.60
2019-05-05T02:25:15.888Z,8.50
2019-05-05T02:26:15.866Z,10.60
2019-05-05T02:27:15.892Z,8.20
2019-05-05T02:28:15.846Z,7.90
2019-05-05T02:29:15.878Z,10.00
2019-05-05T02:30:16.359Z,7.10
2019-05-05T02:31:16.797Z,9.30
2019-05-05T02:32:16.152Z,7.50
2019-05-05T02:33:15.951Z,8.40
2019-05-05T02:34:16.570Z,9.80
2019-05-05T02:35:16.624Z,7.50
2019-05-05T02:36:16.122Z,11.00
2019-05-05T02:37:16.163Z,9.30
2019-05-05T02:38:15.964Z,8.60
2019-05-05T02:39:16.193Z,7.70
2019-05-05T02:40:16.132Z,8.90
2019-05-05T02:41:15.751Z,9.70
2019-05-05T02:42:15.687Z,7.40
2019-05-05T02:43:15.685Z,6.80
2019-05-05T02:44:15.745Z,6.70
2019-05-05T02:45:15.795Z,6.40
2019-05-05T02:46:15.643Z,12.00
2019-05-05T02:47:15.816Z,8.30
2019-05-05T02:48:15.744Z,7.60
2019-05-05T02:49:15.610Z,8.90
2019-05-05T02:50:15.706Z,8.70
2019-05-05T02:51:15.630Z,9.30
2019-05-05T02:52:15.577Z,8.50
2019-05-05T02:53:15.572Z,9.90
2019-05-05T02:54:15.557Z,8.00
2019-05-05T02:55:15.591Z,10.40
2019-05-05T02:56:15.533Z,9.20
2019-05-05T02:57:15.602Z,10.60
2019-05-05T02:58:15.509Z,12.70
2019-05-05T02:59:15.544Z,6.80
2019-05-05T03:00:15.487Z,8.60
2019-05-05T03:01:15.479Z,8.00
2019-05-05T03:02:15.467Z,7.20
2019-05-05T03:03:15.453Z,7.20
2019-05-05T03:04:15.490Z,10.30
2019-05-05T03:05:15.440Z,8.40
2019-05-05T03:06:15.424Z,7.30
2019-05-05T03:07:15.410Z,7.90
2019-05-05T03:08:15.422Z,7.90
2019-05-05T03:09:15.434Z,8.00
2019-05-05T03:10:15.377Z,9.60
2019-05-05T03:11:15.370Z,8.60
2019-05-05T03:12:15.355Z,9.20
2019-05-05T03:13:15.345Z,7.60
2019-05-05T03:14:15.332Z,10.40
2019-05-05T03:15:15.366Z,8.30
2019-05-05T03:16:15.353Z,7.00
2019-05-05T03:17:15.301Z,7.50
2019-05-05T03:18:15.288Z,8.20
2019-05-05T03:19:15.278Z,7.20
2019-05-05T03:20:15.267Z,8.40
2019-05-05T03:21:15.254Z,9.10
2019-05-05T03:22:15.291Z,9.30
2019-05-05T03:23:15.236Z,8.80
2019-05-05T03:24:15.221Z,9.80
2019-05-05T03:25:15.258Z,11.10
2019-05-05T03:26:15.202Z,8.30
2019-05-05T03:27:15.193Z,9.30
2019-05-05T03:28:15.220Z,7.90
2019-05-05T03:29:15.166Z,10.20
2019-05-05T03:30:15.589Z,9.30
2019-05-05T03:31:16.271Z,9.10
2019-05-05T03:32:16.335Z,9.70
2019-05-05T03:33:16.207Z,11.90
2019-05-05T03:34:16.347Z,9.80
2019-05-05T03:35:15.101Z,8.90
2019-05-05T03:36:15.090Z,9.50
2019-05-05T03:37:15.119Z,9.90
2019-05-05T03:38:15.070Z,11.60
2019-05-05T03:39:15.057Z,11.50
2019-05-05T03:40:15.055Z,11.20
2019-05-05T03:41:15.036Z,8.40
2019-05-05T03:42:15.024Z,10.70
2019-05-05T03:43:15.053Z,10.30
2019-05-05T03:44:15.000Z,11.50
2019-05-05T03:45:14.989Z,12.60
2019-05-05T03:46:14.990Z,10.60
2019-05-05T03:47:15.021Z,8.60
2019-05-05T03:48:14.958Z,9.50
2019-05-05T03:49:14.947Z,9.30
2019-05-05T03:50:14.936Z,10.70
2019-05-05T03:51:18.825Z,9.30
2019-05-05T03:52:15.956Z,10.60
2019-05-05T03:53:14.902Z,8.70
2019-05-05T03:54:14.931Z,9.70
2019-05-05T03:55:14.884Z,9.10
2019-05-05T03:56:14.874Z,9.30
2019-05-05T03:57:14.858Z,9.50
2019-05-05T03:58:14.846Z,11.20
2019-05-05T03:59:14.879Z,9.80
2019-05-05T04:00:14.827Z,11.00
2019-05-05T04:01:14.816Z,10.60
2019-05-05T04:02:14.845Z,9.60
2019-05-05T04:03:14.795Z,9.20
2019-05-05T04:04:14.779Z,8.40
2019-05-05T04:05:14.807Z,8.90
2019-05-05T04:06:14.765Z,9.50
2019-05-05T04:07:14.789Z,10.90
2019-05-05T04:08:14.739Z,21.60
2019-05-05T04:09:14.731Z,10.10
2019-05-05T04:10:14.756Z,11.30
2019-05-05T04:11:14.703Z,9.00
2019-05-05T04:12:14.694Z,10.00
2019-05-05T04:13:14.682Z,8.40
2019-05-05T04:14:14.678Z,11.00
2019-05-05T04:15:14.702Z,9.30
2019-05-05T04:16:14.648Z,10.40
2019-05-05T04:17:14.638Z,10.20
2019-05-05T04:18:14.703Z,9.70
2019-05-05T04:19:14.615Z,11.90
2019-05-05T04:20:14.603Z,10.40
2019-05-05T04:21:14.652Z,8.90
2019-05-05T04:22:14.627Z,9.40
2019-05-05T04:23:14.617Z,10.00
2019-05-05T04:24:14.688Z,10.30
2019-05-05T04:25:14.549Z,9.40
2019-05-05T04:26:14.537Z,10.00
2019-05-05T04:27:14.820Z,9.20
2019-05-05T04:28:14.514Z,9.60
2019-05-05T04:29:14.548Z,11.60
2019-05-05T04:30:14.545Z,8.60
2019-05-05T04:31:14.482Z,9.30
2019-05-05T04:32:14.470Z,10.50
2019-05-05T04:33:14.500Z,9.10
2019-05-05T04:34:14.452Z,8.60
2019-05-05T04:35:14.453Z,11.70
2019-05-05T04:36:14.616Z,9.10
2019-05-05T04:37:15.073Z,10.00
2019-05-05T04:38:14.412Z,7.90
2019-05-05T04:39:14.538Z,8.70
2019-05-05T04:40:14.941Z,8.10
2019-05-05T04:41:14.420Z,6.60
2019-05-05T04:42:14.366Z,8.30
2019-05-05T04:43:14.534Z,9.20
2019-05-05T04:44:14.932Z,9.50
2019-05-05T04:45:14.872Z,11.10
2019-05-05T04:46:14.356Z,8.80
2019-05-05T04:47:14.554Z,9.40
2019-05-05T04:48:14.317Z,10.60
2019-05-05T04:49:14.282Z,8.30
2019-05-05T04:50:15.594Z,8.00
2019-05-05T04:51:14.263Z,7.40
2019-05-05T04:52:14.420Z,8.40
2019-05-05T04:53:14.240Z,9.30
2019-05-05T04:54:14.289Z,10.70
2019-05-05T04:55:14.255Z,9.50
2019-05-05T04:56:14.206Z,7.70
2019-05-05T04:57:14.946Z,8.50
2019-05-05T04:58:14.182Z,7.30
2019-05-05T04:59:14.455Z,9.70
2019-05-05T05:00:14.228Z,7.40
2019-05-05T05:01:14.149Z,8.30
2019-05-05T05:02:14.488Z,6.90
2019-05-05T05:03:14.128Z,7.30
2019-05-05T05:04:14.162Z,8.20
2019-05-05T05:05:14.578Z,7.60
2019-05-05T05:06:14.717Z,8.20
2019-05-05T05:07:14.129Z,9.70
2019-05-05T05:08:14.114Z,10.10
2019-05-05T05:09:14.638Z,12.60
2019-05-05T05:10:14.055Z,11.50
2019-05-05T05:11:14.326Z,9.60
2019-05-05T05:12:14.593Z,9.70
2019-05-05T05:13:14.020Z,9.70
2019-05-05T05:14:14.455Z,10.80
2019-05-05T05:15:14.631Z,9.30
2019-05-05T05:16:14.072Z,10.00
2019-05-05T05:17:14.182Z,11.30
2019-05-05T05:18:14.751Z,8.90
2019-05-05T05:19:13.994Z,9.00
2019-05-05T05:20:14.206Z,11.20
2019-05-05T05:21:14.686Z,9.40
2019-05-05T05:22:13.920Z,8.60
2019-05-05T05:23:14.229Z,8.70
2019-05-05T05:24:14.679Z,10.20
2019-05-05T05:25:13.931Z,11.40
2019-05-05T05:26:14.066Z,11.20
2019-05-05T05:27:13.964Z,8.90
2019-05-05T05:28:14.476Z,9.10
2019-05-05T05:29:15.086Z,10.30
2019-05-05T05:30:13.990Z,11.10
2019-05-05T05:31:14.125Z,8.10
2019-05-05T05:32:15.563Z,8.60
2019-05-05T05:33:14.955Z,9.60
2019-05-05T05:34:14.826Z,7.90
2019-05-05T05:35:14.213Z,7.60
2019-05-05T05:36:14.429Z,7.50
2019-05-05T05:37:13.757Z,8.30
2019-05-05T05:38:14.168Z,6.90
2019-05-05T05:39:14.028Z,8.90
2019-05-05T05:40:14.406Z,9.40
2019-05-05T05:41:13.826Z,9.20
2019-05-05T05:42:13.823Z,8.50
2019-05-05T05:43:13.979Z,8.00
2019-05-05T05:44:14.077Z,9.60
2019-05-05T05:45:14.547Z,8.40
2019-05-05T05:46:13.708Z,7.90
2019-05-05T05:47:14.155Z,8.90
2019-05-05T05:48:14.376Z,8.20
2019-05-05T05:49:13.623Z,7.90
2019-05-05T05:50:14.325Z,8.00
2019-05-05T05:51:14.653Z,7.90
2019-05-05T05:52:19.085Z,8.10
2019-05-05T05:53:14.581Z,8.70
2019-05-05T05:54:14.177Z,9.80
2019-05-05T05:55:14.598Z,7.50
2019-05-05T05:56:13.616Z,7.80
2019-05-05T05:57:13.710Z,11.20
2019-05-05T05:58:14.165Z,8.10
2019-05-05T05:59:14.140Z,9.10
2019-05-05T06:00:14.494Z,9.70
2019-05-05T06:01:14.713Z,11.80
2019-05-05T06:02:15.593Z,7.60
2019-05-05T06:03:14.125Z,9.70
2019-05-05T06:04:14.484Z,7.50
2019-05-05T06:05:14.759Z,9.70
2019-05-05T06:06:13.865Z,7.30
2019-05-05T06:07:14.241Z,9.90
2019-05-05T06:08:14.187Z,8.70
2019-05-05T06:09:14.859Z,7.90
2019-05-05T06:10:22.121Z,8.10
2019-05-05T06:11:14.378Z,8.70
2019-05-05T06:12:14.155Z,7.30
2019-05-05T06:13:15.279Z,6.00
2019-05-05T06:14:14.561Z,7.10
2019-05-05T06:15:14.215Z,7.00
2019-05-05T06:16:14.562Z,10.10
2019-05-05T06:17:13.577Z,8.10
2019-05-05T06:18:13.814Z,8.00
2019-05-05T06:19:14.087Z,9.40
2019-05-05T06:20:14.525Z,10.30
2019-05-05T06:21:13.763Z,9.50
2019-05-05T06:22:15.165Z,7.70
2019-05-05T06:23:14.830Z,9.70
2019-05-05T06:24:13.674Z,8.70
2019-05-05T06:25:15.860Z,8.70
2019-05-05T06:26:15.223Z,7.90
2019-05-05T06:27:14.287Z,7.90
2019-05-05T06:28:14.508Z,8.60
2019-05-05T06:29:14.605Z,11.40
2019-05-05T06:30:13.814Z,11.80
2019-05-05T06:31:14.001Z,9.90
2019-05-05T06:32:14.608Z,8.00
2019-05-05T06:33:13.785Z,6.80
2019-05-05T06:34:13.966Z,6.90
2019-05-05T06:35:13.857Z,7.80
2019-05-05T06:36:14.174Z,8.40
2019-05-05T06:37:14.482Z,8.20
2019-05-05T06:38:13.681Z,8.80
2019-05-05T06:39:13.633Z,8.20
2019-05-05T06:40:13.915Z,10.10
2019-05-05T06:41:14.690Z,7.60
2019-05-05T06:42:13.625Z,12.10
2019-05-05T06:43:13.907Z,9.40
2019-05-05T06:44:14.213Z,9.00
2019-05-05T06:45:14.423Z,8.90
2019-05-05T06:46:14.603Z,9.30
2019-05-05T06:47:13.519Z,10.40
2019-05-05T06:48:13.580Z,8.80
2019-05-05T06:49:13.623Z,7.40
2019-05-05T06:50:13.951Z,8.50
2019-05-05T06:51:14.055Z,7.50
2019-05-05T06:52:14.279Z,8.70
2019-05-05T06:53:13.580Z,8.60
2019-05-05T06:54:13.724Z,8.80
2019-05-05T06:55:14.079Z,8.80
2019-05-05T06:56:14.633Z,8.40
2019-05-05T06:57:13.715Z,8.20
2019-05-05T06:58:13.683Z,8.70
2019-05-05T06:59:13.698Z,9.00
2019-05-05T07:00:13.947Z,9.70
2019-05-05T07:01:14.281Z,9.20
2019-05-05T07:02:14.591Z,9.20
2019-05-05T07:03:13.950Z,11.30
2019-05-05T07:04:13.942Z,11.30
2019-05-05T07:05:14.297Z,10.50
2019-05-05T07:06:14.618Z,8.80
2019-05-05T07:07:14.553Z,7.20
2019-05-05T07:08:13.869Z,8.70
2019-05-05T07:09:13.909Z,7.50
2019-05-05T07:10:14.077Z,10.50
2019-05-05T07:11:14.474Z,9.00
2019-05-05T07:12:13.857Z,11.10
2019-05-05T07:13:14.021Z,10.70
2019-05-05T07:14:14.298Z,8.40
2019-05-05T07:15:14.549Z,9.00
2019-05-05T07:16:14.734Z,7.50
2019-05-05T07:17:14.072Z,10.60
2019-05-05T07:18:14.289Z,8.80
2019-05-05T07:19:14.597Z,9.60
2019-05-05T07:20:13.566Z,8.20
2019-05-05T07:21:14.213Z,9.00
2019-05-05T07:22:14.073Z,8.10
2019-05-05T07:23:14.491Z,10.20
2019-05-05T07:24:14.537Z,10.60
2019-05-05T07:25:13.767Z,11.50
2019-05-05T07:26:14.460Z,8.50
2019-05-05T07:27:13.806Z,9.60
2019-05-05T07:28:14.517Z,9.60
2019-05-05T07:29:15.293Z,11.40
2019-05-05T07:30:13.768Z,9.10
2019-05-05T07:31:14.306Z,8.90
2019-05-05T07:32:14.143Z,11.00
2019-05-05T07:33:14.723Z,10.20
2019-05-05T07:34:13.683Z,9.20
2019-05-05T07:35:14.455Z,9.30
2019-05-05T07:36:14.547Z,9.20
2019-05-05T07:37:14.359Z,9.80
2019-05-05T07:38:13.822Z,10.20
2019-05-05T07:39:14.368Z,12.70
2019-05-05T07:40:13.558Z,13.20
2019-05-05T07:41:14.096Z,9.40
2019-05-05T07:42:13.710Z,11.40
2019-05-05T07:43:14.492Z,10.60
2019-05-05T07:44:25.884Z,13.40
2019-05-05T07:45:22.104Z,11.90
2019-05-05T07:46:13.639Z,15.30
2019-05-05T07:47:14.454Z,16.10
2019-05-05T07:48:13.874Z,12.60
2019-05-05T07:49:13.851Z,12.20
2019-05-05T07:50:26.463Z,11.50
2019-05-05T07:51:14.182Z,14.20
2019-05-05T07:52:14.873Z,14.30
2019-05-05T07:53:17.529Z,12.00
2019-05-05T07:54:14.464Z,11.80
2019-05-05T07:55:14.254Z,14.40
2019-05-05T07:56:14.291Z,11.20
2019-05-05T07:57:14.486Z,11.20
2019-05-05T07:58:13.929Z,13.10
2019-05-05T07:59:14.401Z,14.00
2019-05-05T08:00:12.182Z,12.60
2019-05-05T08:01:14.087Z,16.60
2019-05-05T08:02:14.422Z,12.70
2019-05-05T08:03:14.225Z,13.90
2019-05-05T08:04:13.696Z,13.60
2019-05-05T08:05:14.111Z,14.70
2019-05-05T08:06:14.321Z,15.60
2019-05-05T08:07:12.107Z,13.70
2019-05-05T08:08:13.876Z,14.20
2019-05-05T08:09:12.080Z,18.90
2019-05-05T08:10:13.695Z,16.00
2019-05-05T08:11:12.058Z,17.60
2019-05-05T08:12:13.709Z,13.70
2019-05-05T08:13:14.179Z,12.90
2019-05-05T08:14:14.375Z,17.00
2019-05-05T08:15:12.015Z,16.80
2019-05-05T08:16:13.996Z,16.60
2019-05-05T08:17:11.993Z,15.20
2019-05-05T08:18:13.854Z,15.50
2019-05-05T08:19:13.795Z,17.90
2019-05-05T08:20:14.178Z,19.90
2019-05-05T08:21:13.625Z,19.60
2019-05-05T08:22:14.018Z,16.60
2019-05-05T08:23:28.010Z,19.20
2019-05-05T08:24:13.952Z,17.40
2019-05-05T08:25:11.961Z,16.90
2019-05-05T08:26:13.700Z,18.50
2019-05-05T08:27:11.881Z,17.60
2019-05-05T08:28:11.884Z,19.30
2019-05-05T08:29:13.643Z,19.80
2019-05-05T08:30:13.974Z,20.00
2019-05-05T08:31:11.881Z,18.30
2019-05-05T08:32:13.606Z,20.30
2019-05-05T08:33:13.910Z,17.90
2019-05-05T08:34:11.809Z,20.50
2019-05-05T08:35:11.794Z,18.70
2019-05-05T08:36:11.787Z,17.10
2019-05-05T08:37:11.833Z,15.70
2019-05-05T08:38:13.693Z,17.80
2019-05-05T08:39:11.758Z,17.10
2019-05-05T08:40:11.738Z,22.20
2019-05-05T08:41:13.724Z,19.30
2019-05-05T08:42:11.788Z,19.50
2019-05-05T08:43:13.686Z,17.90
2019-05-05T08:44:11.700Z,16.90
2019-05-05T08:45:13.673Z,17.10
2019-05-05T08:46:14.162Z,20.30
2019-05-05T08:47:13.794Z,18.70
2019-05-05T08:48:14.035Z,18.10
2019-05-05T08:49:13.621Z,18.90
2019-05-05T08:50:13.604Z,19.10
2019-05-05T08:51:11.620Z,20.00
2019-05-05T08:52:11.646Z,18.40
2019-05-05T08:53:13.691Z,18.50
2019-05-05T08:54:11.581Z,19.40
2019-05-05T08:55:13.834Z,21.80
2019-05-05T08:56:11.566Z,19.10
2019-05-05T08:57:11.561Z,20.90
2019-05-05T08:58:11.542Z,20.00
2019-05-05T08:59:11.575Z,20.60
2019-05-05T09:00:13.722Z,22.80
2019-05-05T09:01:11.506Z,22.50
2019-05-05T09:02:11.500Z,24.60
2019-05-05T09:03:13.745Z,23.60
2019-05-05T09:04:11.513Z,24.30
2019-05-05T09:05:11.459Z,20.20
2019-05-05T09:06:13.551Z,22.30
2019-05-05T09:07:13.564Z,23.20
2019-05-05T09:08:13.637Z,25.50
2019-05-05T09:09:11.415Z,21.10
2019-05-05T09:10:11.401Z,22.70
2019-05-05T09:11:13.827Z,23.10
2019-05-05T09:12:13.733Z,23.30
2019-05-05T09:13:11.424Z,22.90
2019-05-05T09:14:11.409Z,18.30
2019-05-05T09:15:13.472Z,21.90
2019-05-05T09:16:11.338Z,21.40
2019-05-05T09:17:13.539Z,21.40
2019-05-05T09:18:11.313Z,22.20
2019-05-05T09:19:11.307Z,18.60
2019-05-05T09:20:13.531Z,24.10
2019-05-05T09:21:13.569Z,23.30
2019-05-05T09:22:11.271Z,25.70
2019-05-05T09:23:11.259Z,22.70
2019-05-05T09:24:11.247Z,24.80
2019-05-05T09:25:13.537Z,21.10
2019-05-05T09:26:11.222Z,28.50
2019-05-05T09:27:11.264Z,24.90
2019-05-05T09:28:11.199Z,21.90
2019-05-05T09:29:11.191Z,19.40
2019-05-05T09:30:11.177Z,19.50
2019-05-05T09:31:11.173Z,21.80
2019-05-05T09:32:11.202Z,21.20
2019-05-05T09:33:11.188Z,21.50
2019-05-05T09:34:11.133Z,20.60
2019-05-05T09:35:11.124Z,19.70
2019-05-05T09:36:13.800Z,23.70
2019-05-05T09:37:11.129Z,19.10
2019-05-05T09:38:11.130Z,20.50
2019-05-05T09:39:11.088Z,21.00
2019-05-05T09:40:11.065Z,18.60
2019-05-05T09:41:11.055Z,18.70
2019-05-05T09:42:11.043Z,18.70
2019-05-05T09:43:11.074Z,19.30
2019-05-05T09:44:11.020Z,18.20
2019-05-05T09:45:11.015Z,18.50
2019-05-05T09:46:10.998Z,20.20
2019-05-05T09:47:10.987Z,20.60
2019-05-05T09:48:11.013Z,21.80
2019-05-05T09:49:10.970Z,22.80
2019-05-05T09:50:10.956Z,19.30
2019-05-05T09:51:10.941Z,20.20
2019-05-05T09:52:10.929Z,20.80
2019-05-05T09:53:10.961Z,15.60
2019-05-05T09:54:14.615Z,19.70
2019-05-05T09:55:13.761Z,20.70
2019-05-05T09:56:10.888Z,18.40
2019-05-05T09:57:10.871Z,20.50
2019-05-05T09:58:10.911Z,20.50
2019-05-05T09:59:10.849Z,19.60
2019-05-05T10:00:10.839Z,18.30
2019-05-05T10:01:10.831Z,21.80
2019-05-05T10:02:10.819Z,16.80
2019-05-05T10:03:10.805Z,20.40
2019-05-05T10:04:10.838Z,21.60
2019-05-05T10:05:10.785Z,17.40
2019-05-05T10:06:10.782Z,20.00
2019-05-05T10:07:10.791Z,19.10
2019-05-05T10:08:10.794Z,20.80
2019-05-05T10:09:10.776Z,15.60
2019-05-05T10:10:10.731Z,21.20
2019-05-05T10:11:10.712Z,22.10
2019-05-05T10:12:10.707Z,22.60
2019-05-05T10:13:10.737Z,22.40
2019-05-05T10:14:10.681Z,18.60
2019-05-05T10:15:10.675Z,19.40
2019-05-05T10:16:10.656Z,18.90
2019-05-05T10:17:10.652Z,18.30
2019-05-05T10:18:10.679Z,21.00
2019-05-05T10:19:10.622Z,19.30
2019-05-05T10:20:10.609Z,15.00
2019-05-05T10:21:10.600Z,16.10
2019-05-05T10:22:10.593Z,21.70
2019-05-05T10:23:10.626Z,17.40
2019-05-05T10:24:10.565Z,15.90
2019-05-05T10:25:10.595Z,17.50
2019-05-05T10:26:10.543Z,20.20
2019-05-05T10:27:10.533Z,16.60
2019-05-05T10:28:10.523Z,16.30
2019-05-05T10:29:10.507Z,18.80
2019-05-05T10:30:10.730Z,19.00
2019-05-05T10:31:10.918Z,15.00
2019-05-05T10:32:10.473Z,20.00
2019-05-05T10:33:10.464Z,14.70
2019-05-05T10:34:10.506Z,13.50
2019-05-05T10:35:10.439Z,18.00
2019-05-05T10:36:10.429Z,14.90
2019-05-05T10:37:10.418Z,13.40
2019-05-05T10:38:10.410Z,18.30
2019-05-05T10:39:10.396Z,16.50
2019-05-05T10:40:10.457Z,17.60
2019-05-05T10:41:10.377Z,19.00
2019-05-05T10:42:10.368Z,19.20
2019-05-05T10:43:10.349Z,16.60
2019-05-05T10:44:10.339Z,17.70
2019-05-05T10:45:10.367Z,15.70
2019-05-05T10:46:10.321Z,13.20
2019-05-05T10:47:10.307Z,14.60
2019-05-05T10:48:10.302Z,15.20
2019-05-05T10:49:10.336Z,14.40
2019-05-05T10:50:10.283Z,14.20
2019-05-05T10:51:10.262Z,16.50
2019-05-05T10:52:10.295Z,14.20
2019-05-05T10:53:10.242Z,17.90
2019-05-05T10:54:10.222Z,15.80
2019-05-05T10:55:10.213Z,16.70
2019-05-05T10:56:10.207Z,16.80
2019-05-05T10:57:10.193Z,9.90
2019-05-05T10:58:10.238Z,10.30
2019-05-05T10:59:10.172Z,9.20
2019-05-05T11:00:13.189Z,9.50
2019-05-05T11:01:11.140Z,10.40
2019-05-05T11:02:10.133Z,11.60
2019-05-05T11:03:10.123Z,14.30
2019-05-05T11:04:10.149Z,13.50
2019-05-05T11:05:10.103Z,13.00
2019-05-05T11:06:10.088Z,13.40
2019-05-05T11:07:10.077Z,12.40
2019-05-05T11:08:10.113Z,11.90
2019-05-05T11:09:10.060Z,16.80
2019-05-05T11:10:10.054Z,16.20
2019-05-05T11:11:10.029Z,13.20
2019-05-05T11:12:10.019Z,11.00
2019-05-05T11:13:10.021Z,10.70
2019-05-05T11:14:10.039Z,13.60
2019-05-05T11:15:09.986Z,12.60
2019-05-05T11:16:09.983Z,11.90
2019-05-05T11:17:09.964Z,14.30
2019-05-05T11:18:09.954Z,15.10
2019-05-05T11:19:09.987Z,12.70
2019-05-05T11:20:09.927Z,9.70
2019-05-05T11:21:09.917Z,13.70
2019-05-05T11:22:09.906Z,12.20
2019-05-05T11:23:09.892Z,15.80
2019-05-05T11:24:09.883Z,15.00
2019-05-05T11:25:09.912Z,12.20
2019-05-05T11:26:09.859Z,13.30
2019-05-05T11:27:09.848Z,11.20
2019-05-05T11:28:10.111Z,13.40
2019-05-05T11:29:09.828Z,13.20
2019-05-05T11:30:09.859Z,13.30
2019-05-05T11:31:09.809Z,13.00
2019-05-05T11:32:09.792Z,10.00
2019-05-05T11:33:09.782Z,11.60
2019-05-05T11:34:09.767Z,10.40
2019-05-05T11:35:09.756Z,9.40
2019-05-05T11:36:09.792Z,9.80
2019-05-05T11:37:09.740Z,12.20
2019-05-05T11:38:09.723Z,12.90
2019-05-05T11:39:09.714Z,11.30
2019-05-05T11:40:09.702Z,12.70
2019-05-05T11:41:09.690Z,12.00
2019-05-05T11:42:09.742Z,14.20
2019-05-05T11:43:09.705Z,12.00
2019-05-05T11:44:09.659Z,11.70
2019-05-05T11:45:09.648Z,11.00
2019-05-05T11:46:09.704Z,10.20
2019-05-05T11:47:09.624Z,11.40
2019-05-05T11:48:09.608Z,16.40
2019-05-05T11:49:09.602Z,11.10
2019-05-05T11:50:09.588Z,13.50
2019-05-05T11:51:09.620Z,11.70
2019-05-05T11:52:09.576Z,10.80
2019-05-05T11:53:09.555Z,12.70
2019-05-05T11:54:09.544Z,12.60
2019-05-05T11:55:12.174Z,12.80
2019-05-05T11:56:09.519Z,10.40
2019-05-05T11:57:09.553Z,12.60
2019-05-05T11:58:09.502Z,13.50
2019-05-05T11:59:09.489Z,11.20
2019-05-05T12:00:09.485Z,12.20
2019-05-05T12:01:09.468Z,10.70
2019-05-05T12:02:09.456Z,12.50
2019-05-05T12:03:09.488Z,11.30
2019-05-05T12:04:09.434Z,13.70
2019-05-05T12:05:09.422Z,10.10
2019-05-05T12:06:09.415Z,10.90
2019-05-05T12:07:09.444Z,11.80
2019-05-05T12:08:09.385Z,10.20
2019-05-05T12:09:09.379Z,10.50
2019-05-05T12:10:09.364Z,10.20
2019-05-05T12:11:09.360Z,10.80
2019-05-05T12:12:09.392Z,10.70
2019-05-05T12:13:09.346Z,11.90
2019-05-05T12:14:09.322Z,11.30
2019-05-05T12:15:09.308Z,11.50
2019-05-05T12:16:09.342Z,14.80
2019-05-05T12:17:09.327Z,10.60
2019-05-05T12:18:09.288Z,9.60
2019-05-05T12:19:09.263Z,10.10
2019-05-05T12:20:09.301Z,8.90
2019-05-05T12:21:09.242Z,8.40
2019-05-05T12:22:09.273Z,9.90
2019-05-05T12:23:09.227Z,9.70
2019-05-05T12:24:09.210Z,12.50
2019-05-05T12:25:22.013Z,11.20
2019-05-05T12:26:10.183Z,10.70
2019-05-05T12:27:09.177Z,12.10
2019-05-05T12:28:09.205Z,11.30
2019-05-05T12:29:09.156Z,11.60
2019-05-05T12:30:09.141Z,10.80
2019-05-05T12:31:09.129Z,10.60
2019-05-05T12:32:12.257Z,9.90
2019-05-05T12:33:10.106Z,9.00
2019-05-05T12:34:09.096Z,10.60
2019-05-05T12:35:09.105Z,10.40
2019-05-05T12:36:09.073Z,10.00
2019-05-05T12:37:09.105Z,9.70
2019-05-05T12:38:09.048Z,11.90
2019-05-05T12:39:09.042Z,11.00
2019-05-05T12:40:09.040Z,9.50
2019-05-05T12:41:09.017Z,10.40
2019-05-05T12:42:09.010Z,9.00
2019-05-05T12:43:09.041Z,12.90
2019-05-05T12:44:08.985Z,9.50
2019-05-05T12:45:08.979Z,10.70
2019-05-05T12:46:08.959Z,10.30
2019-05-05T12:47:08.992Z,10.30
2019-05-05T12:48:08.936Z,9.00
2019-05-05T12:49:08.984Z,12.80
2019-05-05T12:50:08.920Z,12.10
2019-05-05T12:51:08.908Z,11.50
2019-05-05T12:52:08.896Z,9.00
2019-05-05T12:53:08.883Z,9.30
2019-05-05T12:54:08.881Z,9.00
2019-05-05T12:55:08.912Z,9.70
2019-05-05T12:56:08.869Z,9.90
2019-05-05T12:57:08.837Z,11.30
2019-05-05T12:58:08.870Z,7.90
2019-05-05T12:59:08.855Z,9.80
2019-05-05T13:00:08.803Z,8.30
2019-05-05T13:01:08.796Z,10.60
2019-05-05T13:02:08.779Z,7.40
2019-05-05T13:03:08.767Z,10.50
2019-05-05T13:04:08.764Z,13.10
2019-05-05T13:05:08.795Z,9.80